Flight Number: AVA1267 Duration: 2:00
Departure: Vienna Schwechat (LOWW) at 21:55 Distance: 692.182 Nm
Arrival: Athens Eleftherios Venizelos (LGAV) at 23:55 Equipment: B737

Weather Information
Wien / Schwechat-Flughafen, Austria (LOWW) 48-07N 016-34E 190M Oct 22, 2020 - 08:20 AM EDT / 2020.10.22 1220 UTC
Wind: Variable at 2 MPH (2 KT):0
Visibility: greater than 7 mile(s):0
Sky conditions: mostly clear Temperature: 57 F (14 C) Dew Point: 48 F (9 C) Relative Humidity: 71% Pressure (altimeter): 30.12 in. Hg (1020 hPa)
ob: LOWW 221220Z VRB02KT 9999 FEW017 14/09 Q1020 NOSIG cycle: 12
Sunrise: 05:28 Sunset: 15:47 (UTC)

Athens Eleftherios Venizelos International Airport, Greece (LGAV) 37-56N 023-56E Oct 22, 2020 - 08:20 AM EDT / 2020.10.22 1220 UTC
Wind: from the NNE (020 degrees) at 15 MPH (13 KT) gusting to 26 MPH (23 KT):0
Visibility: greater than 7 mile(s):0
Sky conditions: partly cloudy Temperature: 71 F (22 C) Dew Point: 51 F (11 C) Relative Humidity: 49% Pressure (altimeter): 30.15 in. Hg (1021 hPa)
ob: LGAV 221220Z 02013G23KT 9999 SCT035 22/11 Q1021 NOSIG cycle: 12
Sunrise: 04:43 Sunset: 15:33 (UTC)

TAF:2020/10/22 12:12 TAF TAF LGAV 221100Z 2212/2312 36015KT 9999 FEW030 TEMPO 2212/2218 01015G25KT SCT030

Previous Pireps for this route
Date Aircraft Flight time Fuel used Landing rate On time
2016-03-31B7371.4200Yes
2017-11-10B7372.20141090Yes
2017-11-22B73702.4512537-707Yes
(pireps marked green are flown by you)

Route map